sensor_id;sensor_type;location;lat;lon;timestamp;pressure;altitude;pressure_sealevel;temperature;humidity
11108;BME280;5607;48.302;14.294;2023-02-23T00:01:00;98188.84;;;7.97;100.00
11108;BME280;5607;48.302;14.294;2023-02-23T00:03:47;98196.22;;;7.92;100.00
11108;BME280;5607;48.302;14.294;2023-02-23T00:06:35;98194.56;;;7.91;100.00
11108;BME280;5607;48.302;14.294;2023-02-23T00:09:23;98195.53;;;7.90;100.00
11108;BME280;5607;48.302;14.294;2023-02-23T00:12:10;98191.94;;;7.81;100.00
11108;BME280;5607;48.302;14.294;2023-02-23T00:14:56;98198.25;;;7.89;100.00
11108;BME280;5607;48.302;14.294;2023-02-23T00:17:44;98200.16;;;7.87;100.00
11108;BME280;5607;48.302;14.294;2023-02-23T00:20:33;98193.75;;;7.91;100.00
11108;BME280;5607;48.302;14.294;2023-02-23T00:23:20;98195.53;;;7.90;100.00
11108;BME280;5607;48.302;14.294;2023-02-23T00:26:06;98162.19;;;7.65;100.00
11108;BME280;5607;48.302;14.294;2023-02-23T00:28:53;98195.34;;;7.82;100.00
11108;BME280;5607;48.302;14.294;2023-02-23T00:31:39;98164.75;;;7.55;100.00
11108;BME280;5607;48.302;14.294;2023-02-23T00:34:26;98199.13;;;7.68;100.00
11108;BME280;5607;48.302;14.294;2023-02-23T00:37:12;98185.66;;;7.53;100.00
11108;BME280;5607;48.302;14.294;2023-02-23T00:39:59;98189.91;;;7.54;100.00
11108;BME280;5607;48.302;14.294;2023-02-23T00:42:46;98174.22;;;7.35;100.00
11108;BME280;5607;48.302;14.294;2023-02-23T00:45:33;98196.19;;;7.52;100.00
11108;BME280;5607;48.302;14.294;2023-02-23T00:48:21;98191.38;;;7.47;100.00
11108;BME280;5607;48.302;14.294;2023-02-23T00:51:08;98196.19;;;7.52;100.00
11108;BME280;5607;48.302;14.294;2023-02-23T00:53:56;98197.69;;;7.54;100.00
11108;BME280;5607;48.302;14.294;2023-02-23T00:56:43;98193.81;;;7.39;100.00
11108;BME280;5607;48.302;14.294;2023-02-23T00:59:30;98184.63;;;7.35;100.00
11108;BME280;5607;48.302;14.294;2023-02-23T01:02:16;98191.75;;;7.43;100.00
11108;BME280;5607;48.302;14.294;2023-02-23T01:05:03;98199.03;;;7.49;100.00
11108;BME280;5607;48.302;14.294;2023-02-23T01:07:50;98191.94;;;7.51;100.00
11108;BME280;5607;48.302;14.294;2023-02-23T01:10:40;98192.03;;;7.40;100.00
11108;BME280;5607;48.302;14.294;2023-02-23T01:13:28;98185.81;;;7.31;100.00
11108;BME280;5607;48.302;14.294;2023-02-23T01:16:17;98195.13;;;7.34;100.00
11108;BME280;5607;48.302;14.294;2023-02-23T01:19:05;98196.72;;;7.25;100.00
11108;BME280;5607;48.302;14.294;2023-02-23T01:21:51;98194.69;;;7.28;100.00
11108;BME280;5607;48.302;14.294;2023-02-23T01:24:38;98191.38;;;7.26;100.00
11108;BME280;5607;48.302;14.294;2023-02-23T01:27:24;98190.25;;;7.19;100.00
11108;BME280;5607;48.302;14.294;2023-02-23T01:30:13;98157.22;;;7.00;100.00
11108;BME280;5607;48.302;14.294;2023-02-23T01:33:02;98178.69;;;7.03;100.00
11108;BME280;5607;48.302;14.294;2023-02-23T01:35:58;98182.28;;;7.11;100.00
11108;BME280;5607;48.302;14.294;2023-02-23T01:38:45;98188.13;;;7.04;100.00
11108;BME280;5607;48.302;14.294;2023-02-23T01:41:33;98187.97;;;7.05;100.00
11108;BME280;5607;48.302;14.294;2023-02-23T01:47:06;98169.56;;;6.87;100.00
11108;BME280;5607;48.302;14.294;2023-02-23T01:49:53;98176.84;;;6.93;100.00
11108;BME280;5607;48.302;14.294;2023-02-23T01:52:42;98179.25;;;6.85;100.00
11108;BME280;5607;48.302;14.294;2023-02-23T01:55:30;98177.16;;;6.79;100.00
11108;BME280;5607;48.302;14.294;2023-02-23T01:58:18;98180.69;;;6.78;100.00
11108;BME280;5607;48.302;14.294;2023-02-23T02:01:05;98186.50;;;6.70;100.00
11108;BME280;5607;48.302;14.294;2023-02-23T02:03:58;98179.78;;;6.68;100.00
11108;BME280;5607;48.302;14.294;2023-02-23T02:06:47;98177.19;;;6.68;100.00
11108;BME280;5607;48.302;14.294;2023-02-23T02:09:40;98180.47;;;6.70;100.00
11108;BME280;5607;48.302;14.294;2023-02-23T02:12:55;98174.16;;;6.63;100.00
11108;BME280;5607;48.302;14.294;2023-02-23T02:19:55;98178.88;;;6.58;100.00
11108;BME280;5607;48.302;14.294;2023-02-23T02:26:20;98177.22;;;6.57;100.00
11108;BME280;5607;48.302;14.294;2023-02-23T02:45:16;98175.22;;;6.60;100.00
11108;BME280;5607;48.302;14.294;2023-02-23T02:51:38;98172.47;;;6.41;100.00
11108;BME280;5607;48.302;14.294;2023-02-23T02:54:36;98169.88;;;6.41;100.00
11108;BME280;5607;48.302;14.294;2023-02-23T02:57:26;98173.84;;;6.45;100.00
11108;BME280;5607;48.302;14.294;2023-02-23T03:00:22;98185.69;;;6.27;100.00
11108;BME280;5607;48.302;14.294;2023-02-23T03:06:46;98176.16;;;6.27;100.00
11108;BME280;5607;48.302;14.294;2023-02-23T03:10:01;98170.78;;;6.08;100.00
11108;BME280;5607;48.302;14.294;2023-02-23T03:13:25;98179.47;;;6.18;100.00
11108;BME280;5607;48.302;14.294;2023-02-23T03:19:58;98180.31;;;6.07;100.00
11108;BME280;5607;48.302;14.294;2023-02-23T03:26:55;98184.53;;;6.19;100.00
11108;BME280;5607;48.302;14.294;2023-02-23T03:30:14;98187.00;;;6.21;100.00
11108;BME280;5607;48.302;14.294;2023-02-23T03:37:17;98188.91;;;6.19;100.00
11108;BME280;5607;48.302;14.294;2023-02-23T03:40:35;98191.59;;;6.29;100.00
11108;BME280;5607;48.302;14.294;2023-02-23T03:43:45;98193.47;;;6.27;100.00
11108;BME280;5607;48.302;14.294;2023-02-23T03:46:52;98198.09;;;6.23;100.00
11108;BME280;5607;48.302;14.294;2023-02-23T03:50:02;98189.59;;;6.21;100.00
11108;BME280;5607;48.302;14.294;2023-02-23T03:53:10;98193.72;;;6.24;100.00
11108;BME280;5607;48.302;14.294;2023-02-23T03:56:23;98202.88;;;6.39;100.00
11108;BME280;5607;48.302;14.294;2023-02-23T03:59:35;98195.97;;;6.28;100.00
11108;BME280;5607;48.302;14.294;2023-02-23T04:02:44;98197.75;;;6.28;100.00
11108;BME280;5607;48.302;14.294;2023-02-23T04:05:53;98181.94;;;6.19;100.00
11108;BME280;5607;48.302;14.294;2023-02-23T04:09:03;98203.59;;;6.41;100.00
11108;BME280;5607;48.302;14.294;2023-02-23T04:12:16;98205.38;;;6.29;100.00
11108;BME280;5607;48.302;14.294;2023-02-23T04:18:21;98210.00;;;6.58;100.00
11108;BME280;5607;48.302;14.294;2023-02-23T04:21:09;98203.75;;;6.60;100.00
11108;BME280;5607;48.302;14.294;2023-02-23T04:23:56;98205.38;;;6.40;100.00
11108;BME280;5607;48.302;14.294;2023-02-23T04:26:43;98206.34;;;6.28;100.00
11108;BME280;5607;48.302;14.294;2023-02-23T04:29:29;98207.13;;;6.40;100.00
11108;BME280;5607;48.302;14.294;2023-02-23T04:32:18;98198.75;;;6.36;100.00
11108;BME280;5607;48.302;14.294;2023-02-23T04:35:05;98204.53;;;6.40;100.00
11108;BME280;5607;48.302;14.294;2023-02-23T04:37:52;98196.03;;;6.38;100.00
11108;BME280;5607;48.302;14.294;2023-02-23T04:40:39;98206.28;;;6.39;100.00
11108;BME280;5607;48.302;14.294;2023-02-23T04:43:25;98206.75;;;6.44;100.00
11108;BME280;5607;48.302;14.294;2023-02-23T04:46:12;98204.50;;;6.51;100.00
11108;BME280;5607;48.302;14.294;2023-02-23T04:48:58;98192.75;;;6.36;100.00
11108;BME280;5607;48.302;14.294;2023-02-23T04:51:45;98207.03;;;6.62;100.00
11108;BME280;5607;48.302;14.294;2023-02-23T04:54:32;98210.13;;;6.56;100.00
11108;BME280;5607;48.302;14.294;2023-02-23T04:57:22;98198.44;;;6.62;100.00
11108;BME280;5607;48.302;14.294;2023-02-23T05:00:09;98200.31;;;6.71;100.00
11108;BME280;5607;48.302;14.294;2023-02-23T05:02:56;98200.50;;;6.79;100.00
11108;BME280;5607;48.302;14.294;2023-02-23T05:05:44;98203.47;;;6.74;100.00
11108;BME280;5607;48.302;14.294;2023-02-23T05:08:30;98197.72;;;6.71;100.00
11108;BME280;5607;48.302;14.294;2023-02-23T05:11:17;98193.25;;;6.62;100.00
11108;BME280;5607;48.302;14.294;2023-02-23T05:14:04;98164.09;;;6.37;100.00
11108;BME280;5607;48.302;14.294;2023-02-23T05:16:50;98195.03;;;6.61;100.00
11108;BME280;5607;48.302;14.294;2023-02-23T05:19:37;98194.06;;;6.62;100.00
11108;BME280;5607;48.302;14.294;2023-02-23T05:22:24;98193.75;;;6.56;100.00
11108;BME280;5607;48.302;14.294;2023-02-23T05:25:10;98193.94;;;6.64;100.00
11108;BME280;5607;48.302;14.294;2023-02-23T05:27:57;98198.22;;;6.65;100.00
11108;BME280;5607;48.302;14.294;2023-02-23T05:31:03;98192.03;;;6.77;100.00
11108;BME280;5607;48.302;14.294;2023-02-23T05:33:50;98190.25;;;6.78;100.00
11108;BME280;5607;48.302;14.294;2023-02-23T05:36:36;98193.91;;;6.75;100.00
11108;BME280;5607;48.302;14.294;2023-02-23T05:39:23;98194.84;;;6.74;100.00
11108;BME280;5607;48.302;14.294;2023-02-23T05:42:09;98191.06;;;6.78;100.00
11108;BME280;5607;48.302;14.294;2023-02-23T05:44:56;98191.19;;;6.77;100.00
11108;BME280;5607;48.302;14.294;2023-02-23T05:47:43;98197.09;;;6.79;100.00
11108;BME280;5607;48.302;14.294;2023-02-23T05:50:31;98203.09;;;6.79;100.00
11108;BME280;5607;48.302;14.294;2023-02-23T05:53:19;98202.84;;;6.82;100.00
11108;BME280;5607;48.302;14.294;2023-02-23T05:56:07;98207.03;;;6.94;100.00
11108;BME280;5607;48.302;14.294;2023-02-23T05:58:57;98211.16;;;7.18;100.00
11108;BME280;5607;48.302;14.294;2023-02-23T06:01:44;98211.66;;;7.12;100.00
11108;BME280;5607;48.302;14.294;2023-02-23T06:04:31;98209.53;;;7.17;100.00
11108;BME280;5607;48.302;14.294;2023-02-23T06:07:18;98221.69;;;7.16;100.00
11108;BME280;5607;48.302;14.294;2023-02-23T06:10:05;98214.72;;;7.17;100.00
11108;BME280;5607;48.302;14.294;2023-02-23T06:12:52;98215.59;;;7.27;100.00
11108;BME280;5607;48.302;14.294;2023-02-23T06:15:39;98223.50;;;7.25;100.00
11108;BME280;5607;48.302;14.294;2023-02-23T06:18:26;98225.53;;;7.22;100.00
11108;BME280;5607;48.302;14.294;2023-02-23T06:21:13;98228.38;;;7.19;100.00
11108;BME280;5607;48.302;14.294;2023-02-23T06:24:00;98219.41;;;7.23;100.00
11108;BME280;5607;48.302;14.294;2023-02-23T06:26:46;98225.16;;;7.26;100.00
11108;BME280;5607;48.302;14.294;2023-02-23T06:29:33;98229.72;;;7.34;100.00
11108;BME280;5607;48.302;14.294;2023-02-23T06:32:19;98223.13;;;7.30;100.00
11108;BME280;5607;48.302;14.294;2023-02-23T06:35:07;98241.13;;;7.43;100.00
11108;BME280;5607;48.302;14.294;2023-02-23T06:37:53;98239.97;;;7.36;100.00
11108;BME280;5607;48.302;14.294;2023-02-23T06:40:40;98240.28;;;7.42;100.00
11108;BME280;5607;48.302;14.294;2023-02-23T06:43:28;98247.56;;;7.48;100.00
11108;BME280;5607;48.302;14.294;2023-02-23T06:46:15;98253.44;;;7.50;100.00
11108;BME280;5607;48.302;14.294;2023-02-23T06:49:01;98254.41;;;7.49;100.00
11108;BME280;5607;48.302;14.294;2023-02-23T06:51:48;98250.84;;;7.50;100.00
11108;BME280;5607;48.302;14.294;2023-02-23T06:54:34;98226.31;;;7.34;100.00
11108;BME280;5607;48.302;14.294;2023-02-23T06:57:23;98253.06;;;7.55;100.00
11108;BME280;5607;48.302;14.294;2023-02-23T07:00:12;98244.53;;;7.64;100.00
11108;BME280;5607;48.302;14.294;2023-02-23T07:03:00;98261.19;;;7.62;100.00
11108;BME280;5607;48.302;14.294;2023-02-23T07:05:46;98264.81;;;7.70;100.00
11108;BME280;5607;48.302;14.294;2023-02-23T07:08:33;98262.59;;;7.66;100.00
11108;BME280;5607;48.302;14.294;2023-02-23T07:11:20;98251.13;;;7.47;100.00
11108;BME280;5607;48.302;14.294;2023-02-23T07:14:09;98258.09;;;7.47;100.00
11108;BME280;5607;48.302;14.294;2023-02-23T07:16:57;98283.63;;;7.63;100.00
11108;BME280;5607;48.302;14.294;2023-02-23T07:19:44;98279.53;;;7.70;100.00
11108;BME280;5607;48.302;14.294;2023-02-23T07:22:30;98277.34;;;7.65;100.00
11108;BME280;5607;48.302;14.294;2023-02-23T07:25:19;98260.94;;;7.65;100.00
11108;BME280;5607;48.302;14.294;2023-02-23T07:28:06;98256.53;;;7.86;100.00
11108;BME280;5607;48.302;14.294;2023-02-23T07:30:57;98266.84;;;7.97;100.00
11108;BME280;5607;48.302;14.294;2023-02-23T07:33:43;98276.72;;;8.03;100.00
11108;BME280;5607;48.302;14.294;2023-02-23T07:36:30;98274.38;;;8.00;100.00
11108;BME280;5607;48.302;14.294;2023-02-23T07:39:19;98280.09;;;7.94;100.00
11108;BME280;5607;48.302;14.294;2023-02-23T07:42:05;98282.06;;;8.02;100.00
11108;BME280;5607;48.302;14.294;2023-02-23T07:44:52;98276.50;;;8.16;100.00
11108;BME280;5607;48.302;14.294;2023-02-23T07:47:39;98283.38;;;8.27;100.00
11108;BME280;5607;48.302;14.294;2023-02-23T07:50:25;98273.91;;;8.26;100.00
11108;BME280;5607;48.302;14.294;2023-02-23T07:53:12;98284.97;;;8.49;100.00
11108;BME280;5607;48.302;14.294;2023-02-23T07:55:59;98286.34;;;8.53;100.00
11108;BME280;5607;48.302;14.294;2023-02-23T07:58:49;98279.63;;;8.50;100.00
11108;BME280;5607;48.302;14.294;2023-02-23T08:01:35;98284.72;;;8.61;100.00
11108;BME280;5607;48.302;14.294;2023-02-23T08:04:22;98293.38;;;8.72;100.00
11108;BME280;5607;48.302;14.294;2023-02-23T08:07:09;98283.22;;;8.69;100.00
11108;BME280;5607;48.302;14.294;2023-02-23T08:09:56;98271.56;;;8.63;100.00
11108;BME280;5607;48.302;14.294;2023-02-23T08:12:42;98281.59;;;8.68;100.00
11108;BME280;5607;48.302;14.294;2023-02-23T08:15:29;98290.25;;;8.78;100.00
11108;BME280;5607;48.302;14.294;2023-02-23T08:18:17;98293.13;;;8.84;100.00
11108;BME280;5607;48.302;14.294;2023-02-23T08:21:04;98281.75;;;8.85;100.00
11108;BME280;5607;48.302;14.294;2023-02-23T08:23:51;98296.72;;;9.03;100.00
11108;BME280;5607;48.302;14.294;2023-02-23T08:26:37;98275.06;;;9.02;100.00
11108;BME280;5607;48.302;14.294;2023-02-23T08:29:24;98294.50;;;9.17;100.00
11108;BME280;5607;48.302;14.294;2023-02-23T08:32:11;98303.00;;;9.10;100.00
11108;BME280;5607;48.302;14.294;2023-02-23T08:34:57;98302.75;;;9.23;100.00
11108;BME280;5607;48.302;14.294;2023-02-23T08:37:46;98303.16;;;9.18;100.00
11108;BME280;5607;48.302;14.294;2023-02-23T08:40:32;98310.97;;;9.18;100.00
11108;BME280;5607;48.302;14.294;2023-02-23T08:43:21;98301.09;;;9.12;100.00
11108;BME280;5607;48.302;14.294;2023-02-23T08:46:08;98302.03;;;9.30;100.00
11108;BME280;5607;48.302;14.294;2023-02-23T08:48:55;98301.78;;;9.14;100.00
11108;BME280;5607;48.302;14.294;2023-02-23T08:51:42;98304.66;;;9.40;100.00
11108;BME280;5607;48.302;14.294;2023-02-23T08:54:29;98304.22;;;9.54;100.00
11108;BME280;5607;48.302;14.294;2023-02-23T08:57:15;98303.97;;;9.48;100.00
11108;BME280;5607;48.302;14.294;2023-02-23T09:00:03;98305.19;;;9.53;100.00
11108;BME280;5607;48.302;14.294;2023-02-23T09:02:57;98311.91;;;9.65;100.00
11108;BME280;5607;48.302;14.294;2023-02-23T09:05:43;98308.47;;;9.55;100.00
11108;BME280;5607;48.302;14.294;2023-02-23T09:08:30;98316.72;;;9.51;100.00
11108;BME280;5607;48.302;14.294;2023-02-23T09:11:16;98313.97;;;9.52;100.00
11108;BME280;5607;48.302;14.294;2023-02-23T09:14:03;98291.06;;;9.46;100.00
11108;BME280;5607;48.302;14.294;2023-02-23T09:16:49;98306.94;;;9.62;100.00
11108;BME280;5607;48.302;14.294;2023-02-23T09:19:36;98314.94;;;9.51;100.00
11108;BME280;5607;48.302;14.294;2023-02-23T09:22:23;98314.41;;;9.38;100.00
11108;BME280;5607;48.302;14.294;2023-02-23T09:25:09;98312.03;;;9.54;100.00
11108;BME280;5607;48.302;14.294;2023-02-23T09:27:57;98314.75;;;9.62;100.00
11108;BME280;5607;48.302;14.294;2023-02-23T09:30:47;98310.78;;;9.68;100.00
11108;BME280;5607;48.302;14.294;2023-02-23T09:33:34;98313.38;;;9.78;100.00
11108;BME280;5607;48.302;14.294;2023-02-23T09:36:23;98310.94;;;9.66;100.00
11108;BME280;5607;48.302;14.294;2023-02-23T09:39:10;98318.03;;;9.74;100.00
11108;BME280;5607;48.302;14.294;2023-02-23T09:42:06;98319.97;;;9.82;100.00
11108;BME280;5607;48.302;14.294;2023-02-23T09:45:08;98316.81;;;9.88;100.00
11108;BME280;5607;48.302;14.294;2023-02-23T09:48:21;98315.09;;;10.06;100.00
11108;BME280;5607;48.302;14.294;2023-02-23T09:51:15;98307.94;;;10.08;100.00
11108;BME280;5607;48.302;14.294;2023-02-23T09:54:05;98309.50;;;10.01;100.00
11108;BME280;5607;48.302;14.294;2023-02-23T09:56:55;98317.34;;;10.38;100.00
11108;BME280;5607;48.302;14.294;2023-02-23T09:59:43;98316.78;;;10.44;100.00
11108;BME280;5607;48.302;14.294;2023-02-23T10:02:35;98320.47;;;10.69;100.00
11108;BME280;5607;48.302;14.294;2023-02-23T10:05:25;98322.50;;;10.75;100.00
11108;BME280;5607;48.302;14.294;2023-02-23T10:08:40;98306.31;;;10.72;100.00
11108;BME280;5607;48.302;14.294;2023-02-23T10:14:28;98324.53;;;10.82;100.00
11108;BME280;5607;48.302;14.294;2023-02-23T10:17:32;98313.50;;;10.88;100.00
11108;BME280;5607;48.302;14.294;2023-02-23T10:20:29;98325.25;;;11.19;100.00
11108;BME280;5607;48.302;14.294;2023-02-23T10:23:57;98326.66;;;11.31;100.00
11108;BME280;5607;48.302;14.294;2023-02-23T10:26:46;98317.41;;;11.19;100.00
11108;BME280;5607;48.302;14.294;2023-02-23T10:29:55;98318.13;;;11.29;100.00
11108;BME280;5607;48.302;14.294;2023-02-23T10:33:09;98310.38;;;11.38;100.00
11108;BME280;5607;48.302;14.294;2023-02-23T10:36:17;98306.56;;;11.32;100.00
11108;BME280;5607;48.302;14.294;2023-02-23T10:39:06;98303.34;;;11.20;100.00
11108;BME280;5607;48.302;14.294;2023-02-23T10:41:55;98304.47;;;11.18;100.00
11108;BME280;5607;48.302;14.294;2023-02-23T10:44:44;98297.97;;;11.04;100.00
11108;BME280;5607;48.302;14.294;2023-02-23T10:47:33;98301.03;;;11.17;100.00
11108;BME280;5607;48.302;14.294;2023-02-23T10:50:22;98290.13;;;11.40;100.00
11108;BME280;5607;48.302;14.294;2023-02-23T10:53:16;98302.13;;;11.68;100.00
11108;BME280;5607;48.302;14.294;2023-02-23T10:56:09;98295.59;;;11.72;100.00
11108;BME280;5607;48.302;14.294;2023-02-23T10:58:57;98292.34;;;11.78;100.00
11108;BME280;5607;48.302;14.294;2023-02-23T11:01:44;98289.00;;;11.86;100.00
11108;BME280;5607;48.302;14.294;2023-02-23T11:04:31;98290.28;;;12.08;99.38
11108;BME280;5607;48.302;14.294;2023-02-23T11:10:25;98286.19;;;12.05;99.84
11108;BME280;5607;48.302;14.294;2023-02-23T11:13:22;98273.22;;;11.78;99.74
11108;BME280;5607;48.302;14.294;2023-02-23T11:16:30;98279.59;;;12.35;97.45
11108;BME280;5607;48.302;14.294;2023-02-23T11:19:28;98273.97;;;12.64;95.33
11108;BME280;5607;48.302;14.294;2023-02-23T11:22:19;98267.81;;;12.31;95.98
11108;BME280;5607;48.302;14.294;2023-02-23T11:25:16;98279.03;;;12.66;93.29
11108;BME280;5607;48.302;14.294;2023-02-23T11:28:18;98267.47;;;12.26;95.94
11108;BME280;5607;48.302;14.294;2023-02-23T11:31:21;98262.31;;;12.08;97.60
11108;BME280;5607;48.302;14.294;2023-02-23T11:34:27;98254.03;;;11.87;98.31
11108;BME280;5607;48.302;14.294;2023-02-23T11:37:18;98252.13;;;11.79;100.00
11108;BME280;5607;48.302;14.294;2023-02-23T11:40:21;98259.03;;;12.06;98.81
11108;BME280;5607;48.302;14.294;2023-02-23T11:43:14;98253.16;;;11.35;100.00
11108;BME280;5607;48.302;14.294;2023-02-23T11:46:02;98246.22;;;11.43;100.00
11108;BME280;5607;48.302;14.294;2023-02-23T11:49:16;98255.84;;;11.69;100.00
11108;BME280;5607;48.302;14.294;2023-02-23T11:52:11;98252.91;;;11.02;100.00
11108;BME280;5607;48.302;14.294;2023-02-23T11:55:04;98233.78;;;11.19;100.00
11108;BME280;5607;48.302;14.294;2023-02-23T11:57:52;98243.00;;;11.31;100.00
11108;BME280;5607;48.302;14.294;2023-02-23T12:00:41;98245.81;;;10.94;100.00
11108;BME280;5607;48.302;14.294;2023-02-23T12:03:31;98238.84;;;10.85;100.00
11108;BME280;5607;48.302;14.294;2023-02-23T12:06:31;98241.00;;;10.72;100.00
11108;BME280;5607;48.302;14.294;2023-02-23T12:09:32;98236.63;;;10.72;100.00
11108;BME280;5607;48.302;14.294;2023-02-23T12:12:23;98237.66;;;10.97;100.00
11108;BME280;5607;48.302;14.294;2023-02-23T12:15:26;98239.22;;;10.72;100.00
11108;BME280;5607;48.302;14.294;2023-02-23T12:18:23;98239.38;;;10.89;100.00
11108;BME280;5607;48.302;14.294;2023-02-23T12:24:57;98229.31;;;10.94;100.00
11108;BME280;5607;48.302;14.294;2023-02-23T12:28:11;98205.88;;;11.02;100.00
11108;BME280;5607;48.302;14.294;2023-02-23T12:31:04;98229.16;;;10.77;100.00
11108;BME280;5607;48.302;14.294;2023-02-23T12:33:59;98216.53;;;10.91;100.00
11108;BME280;5607;48.302;14.294;2023-02-23T12:36:56;98213.38;;;11.49;100.00
11108;BME280;5607;48.302;14.294;2023-02-23T12:39:49;98220.09;;;12.03;100.00
11108;BME280;5607;48.302;14.294;2023-02-23T12:42:42;98216.44;;;12.38;100.00
11108;BME280;5607;48.302;14.294;2023-02-23T12:45:50;98214.06;;;12.70;98.61
11108;BME280;5607;48.302;14.294;2023-02-23T12:52:12;98209.03;;;12.92;97.35
11108;BME280;5607;48.302;14.294;2023-02-23T12:55:05;98199.94;;;12.54;97.97
11108;BME280;5607;48.302;14.294;2023-02-23T12:58:09;98210.16;;;12.15;100.00
11108;BME280;5607;48.302;14.294;2023-02-23T13:01:50;98197.44;;;11.60;100.00
11108;BME280;5607;48.302;14.294;2023-02-23T13:13:40;98186.56;;;12.90;96.44
11108;BME280;5607;48.302;14.294;2023-02-23T13:16:34;98185.09;;;12.96;95.98
11108;BME280;5607;48.302;14.294;2023-02-23T13:19:27;98186.88;;;12.71;97.77
11108;BME280;5607;48.302;14.294;2023-02-23T13:22:39;98186.38;;;12.51;99.17
11108;BME280;5607;48.302;14.294;2023-02-23T13:28:48;98181.47;;;12.72;98.17
11108;BME280;5607;48.302;14.294;2023-02-23T13:31:40;98185.09;;;12.96;97.50
11108;BME280;5607;48.302;14.294;2023-02-23T13:34:32;98174.13;;;13.33;95.24
11108;BME280;5607;48.302;14.294;2023-02-23T13:37:26;98147.25;;;12.65;98.08
11108;BME280;5607;48.302;14.294;2023-02-23T13:40:45;98154.78;;;13.01;96.50
11108;BME280;5607;48.302;14.294;2023-02-23T13:43:42;98182.00;;;13.25;95.75
11108;BME280;5607;48.302;14.294;2023-02-23T13:52:31;98174.84;;;12.27;100.00
11108;BME280;5607;48.302;14.294;2023-02-23T13:58:16;98169.03;;;12.58;100.00
11108;BME280;5607;48.302;14.294;2023-02-23T14:01:13;98163.66;;;12.68;100.00
11108;BME280;5607;48.302;14.294;2023-02-23T14:04:06;98172.75;;;12.47;100.00
11108;BME280;5607;48.302;14.294;2023-02-23T14:07:02;98179.78;;;12.38;100.00
11108;BME280;5607;48.302;14.294;2023-02-23T14:13:21;98167.69;;;12.37;100.00
11108;BME280;5607;48.302;14.294;2023-02-23T14:16:15;98170.59;;;12.26;100.00
11108;BME280;5607;48.302;14.294;2023-02-23T14:19:29;98170.72;;;12.08;100.00
11108;BME280;5607;48.302;14.294;2023-02-23T14:22:17;98171.22;;;12.12;100.00
11108;BME280;5607;48.302;14.294;2023-02-23T14:31:19;98168.47;;;12.22;100.00
11108;BME280;5607;48.302;14.294;2023-02-23T14:34:11;98166.31;;;12.17;100.00
11108;BME280;5607;48.302;14.294;2023-02-23T14:37:11;98162.50;;;11.95;100.00
11108;BME280;5607;48.302;14.294;2023-02-23T14:40:28;98164.00;;;12.06;100.00
11108;BME280;5607;48.302;14.294;2023-02-23T14:46:22;98160.59;;;11.79;100.00
11108;BME280;5607;48.302;14.294;2023-02-23T14:49:18;98158.19;;;11.86;100.00
11108;BME280;5607;48.302;14.294;2023-02-23T14:52:08;98161.03;;;11.93;100.00
11108;BME280;5607;48.302;14.294;2023-02-23T14:57:57;98160.16;;;11.84;100.00
11108;BME280;5607;48.302;14.294;2023-02-23T15:00:44;98164.59;;;11.92;100.00
11108;BME280;5607;48.302;14.294;2023-02-23T15:03:30;98154.41;;;11.80;100.00
11108;BME280;5607;48.302;14.294;2023-02-23T15:06:17;98157.78;;;11.73;100.00
11108;BME280;5607;48.302;14.294;2023-02-23T15:09:04;98154.69;;;11.77;100.00
11108;BME280;5607;48.302;14.294;2023-02-23T15:11:52;98156.16;;;11.80;100.00
11108;BME280;5607;48.302;14.294;2023-02-23T15:14:41;98153.22;;;11.75;100.00
11108;BME280;5607;48.302;14.294;2023-02-23T15:17:30;98144.38;;;11.68;100.00
11108;BME280;5607;48.302;14.294;2023-02-23T15:20:20;98159.16;;;11.51;100.00
11108;BME280;5607;48.302;14.294;2023-02-23T15:23:16;98149.13;;;11.38;100.00
11108;BME280;5607;48.302;14.294;2023-02-23T15:32:15;98149.34;;;11.53;100.00
11108;BME280;5607;48.302;14.294;2023-02-23T15:35:03;98138.41;;;11.23;100.00
11108;BME280;5607;48.302;14.294;2023-02-23T15:37:50;98144.19;;;11.35;100.00
11108;BME280;5607;48.302;14.294;2023-02-23T15:40:37;98138.19;;;11.43;100.00
11108;BME280;5607;48.302;14.294;2023-02-23T15:43:24;98145.00;;;11.36;100.00
11108;BME280;5607;48.302;14.294;2023-02-23T15:46:22;98139.78;;;11.36;100.00
11108;BME280;5607;48.302;14.294;2023-02-23T15:49:12;98133.25;;;11.31;100.00
11108;BME280;5607;48.302;14.294;2023-02-23T15:52:19;98136.53;;;11.42;100.00
11108;BME280;5607;48.302;14.294;2023-02-23T15:55:08;98134.06;;;11.32;100.00
11108;BME280;5607;48.302;14.294;2023-02-23T15:57:58;98137.44;;;11.24;100.00
11108;BME280;5607;48.302;14.294;2023-02-23T16:00:53;98137.13;;;11.27;100.00
11108;BME280;5607;48.302;14.294;2023-02-23T16:03:45;98123.00;;;11.12;100.00
11108;BME280;5607;48.302;14.294;2023-02-23T16:06:55;98128.75;;;11.24;100.00
11108;BME280;5607;48.302;14.294;2023-02-23T16:10:14;98115.69;;;11.24;100.00
11108;BME280;5607;48.302;14.294;2023-02-23T16:13:04;98123.03;;;11.20;100.00
11108;BME280;5607;48.302;14.294;2023-02-23T16:16:13;98120.09;;;11.23;100.00
11108;BME280;5607;48.302;14.294;2023-02-23T16:19:04;98113.84;;;11.16;100.00
11108;BME280;5607;48.302;14.294;2023-02-23T16:21:55;98110.53;;;11.06;100.00
11108;BME280;5607;48.302;14.294;2023-02-23T16:24:42;98116.06;;;11.03;100.00
11108;BME280;5607;48.302;14.294;2023-02-23T16:27:29;98114.09;;;11.05;100.00
11108;BME280;5607;48.302;14.294;2023-02-23T16:33:25;98117.69;;;11.04;100.00
11108;BME280;5607;48.302;14.294;2023-02-23T16:36:33;98117.56;;;11.05;100.00
11108;BME280;5607;48.302;14.294;2023-02-23T16:39:20;98112.63;;;11.02;100.00
11108;BME280;5607;48.302;14.294;2023-02-23T16:42:36;98109.19;;;11.02;100.00
11108;BME280;5607;48.302;14.294;2023-02-23T16:45:25;98117.81;;;10.94;100.00
11108;BME280;5607;48.302;14.294;2023-02-23T16:48:13;98113.50;;;10.85;100.00
11108;BME280;5607;48.302;14.294;2023-02-23T16:51:00;98113.22;;;10.70;100.00
11108;BME280;5607;48.302;14.294;2023-02-23T16:53:48;98117.31;;;10.73;100.00
11108;BME280;5607;48.302;14.294;2023-02-23T16:56:37;98113.94;;;10.81;100.00